sensor_id;sensor_type;location;lat;lon;timestamp;P1;durP1;ratioP1;P2;durP2;ratioP2
28070;SDS011;15383;48.408;9.968;2022-12-07T00:00:55;4.80;;;2.30;;
28070;SDS011;15383;48.408;9.968;2022-12-07T00:03:31;12.20;;;2.30;;
28070;SDS011;15383;48.408;9.968;2022-12-07T00:05:58;3.95;;;1.88;;
28070;SDS011;15383;48.408;9.968;2022-12-07T00:08:23;5.88;;;2.25;;
28070;SDS011;15383;48.408;9.968;2022-12-07T00:10:49;6.40;;;2.10;;
28070;SDS011;15383;48.408;9.968;2022-12-07T00:13:14;6.53;;;1.70;;
28070;SDS011;15383;48.408;9.968;2022-12-07T00:15:40;3.75;;;1.65;;
28070;SDS011;15383;48.408;9.968;2022-12-07T00:18:06;6.68;;;2.22;;
28070;SDS011;15383;48.408;9.968;2022-12-07T00:20:31;4.85;;;2.20;;
28070;SDS011;15383;48.408;9.968;2022-12-07T00:22:58;3.53;;;1.95;;
28070;SDS011;15383;48.408;9.968;2022-12-07T00:25:23;6.38;;;2.25;;
28070;SDS011;15383;48.408;9.968;2022-12-07T00:27:49;12.85;;;2.13;;
28070;SDS011;15383;48.408;9.968;2022-12-07T00:30:15;2.92;;;1.65;;
28070;SDS011;15383;48.408;9.968;2022-12-07T00:32:40;5.18;;;2.42;;
28070;SDS011;15383;48.408;9.968;2022-12-07T00:35:06;3.58;;;2.13;;
28070;SDS011;15383;48.408;9.968;2022-12-07T00:37:32;6.53;;;1.98;;
28070;SDS011;15383;48.408;9.968;2022-12-07T00:39:57;9.98;;;2.22;;
28070;SDS011;15383;48.408;9.968;2022-12-07T00:42:23;4.55;;;1.98;;
28070;SDS011;15383;48.408;9.968;2022-12-07T00:44:48;3.78;;;2.00;;
28070;SDS011;15383;48.408;9.968;2022-12-07T00:47:14;8.35;;;2.13;;
28070;SDS011;15383;48.408;9.968;2022-12-07T00:49:39;3.67;;;2.05;;
28070;SDS011;15383;48.408;9.968;2022-12-07T00:52:05;4.50;;;2.13;;
28070;SDS011;15383;48.408;9.968;2022-12-07T00:54:31;4.38;;;2.05;;
28070;SDS011;15383;48.408;9.968;2022-12-07T00:56:56;7.78;;;2.00;;
28070;SDS011;15383;48.408;9.968;2022-12-07T00:59:22;5.47;;;2.33;;
28070;SDS011;15383;48.408;9.968;2022-12-07T01:01:47;3.40;;;2.08;;
28070;SDS011;15383;48.408;9.968;2022-12-07T01:04:13;4.22;;;2.00;;
28070;SDS011;15383;48.408;9.968;2022-12-07T01:06:38;13.20;;;2.47;;
28070;SDS011;15383;48.408;9.968;2022-12-07T01:09:04;13.25;;;1.92;;
28070;SDS011;15383;48.408;9.968;2022-12-07T01:11:31;8.52;;;2.55;;
28070;SDS011;15383;48.408;9.968;2022-12-07T01:13:57;7.63;;;2.28;;
28070;SDS011;15383;48.408;9.968;2022-12-07T01:16:24;5.78;;;2.10;;
28070;SDS011;15383;48.408;9.968;2022-12-07T01:18:52;5.13;;;1.80;;
28070;SDS011;15383;48.408;9.968;2022-12-07T01:21:22;3.95;;;1.75;;
28070;SDS011;15383;48.408;9.968;2022-12-07T01:23:49;3.10;;;2.35;;
28070;SDS011;15383;48.408;9.968;2022-12-07T01:26:17;4.07;;;2.30;;
28070;SDS011;15383;48.408;9.968;2022-12-07T01:28:44;4.28;;;2.03;;
28070;SDS011;15383;48.408;9.968;2022-12-07T01:31:11;11.15;;;2.05;;
28070;SDS011;15383;48.408;9.968;2022-12-07T01:33:40;5.70;;;2.05;;
28070;SDS011;15383;48.408;9.968;2022-12-07T01:36:07;4.43;;;2.10;;
28070;SDS011;15383;48.408;9.968;2022-12-07T01:38:41;5.22;;;1.80;;
28070;SDS011;15383;48.408;9.968;2022-12-07T01:41:07;4.78;;;1.92;;
28070;SDS011;15383;48.408;9.968;2022-12-07T01:43:33;3.30;;;1.90;;
28070;SDS011;15383;48.408;9.968;2022-12-07T01:46:00;6.32;;;1.65;;
28070;SDS011;15383;48.408;9.968;2022-12-07T01:48:29;3.50;;;2.25;;
28070;SDS011;15383;48.408;9.968;2022-12-07T01:51:04;4.38;;;1.80;;
28070;SDS011;15383;48.408;9.968;2022-12-07T01:56:00;1.90;;;1.60;;
28070;SDS011;15383;48.408;9.968;2022-12-07T01:58:26;4.57;;;1.70;;
28070;SDS011;15383;48.408;9.968;2022-12-07T02:00:53;5.30;;;2.17;;
28070;SDS011;15383;48.408;9.968;2022-12-07T02:03:19;5.15;;;1.73;;
28070;SDS011;15383;48.408;9.968;2022-12-07T02:05:46;4.88;;;1.73;;
28070;SDS011;15383;48.408;9.968;2022-12-07T02:08:12;8.57;;;2.38;;
28070;SDS011;15383;48.408;9.968;2022-12-07T02:10:39;3.70;;;1.77;;
28070;SDS011;15383;48.408;9.968;2022-12-07T02:13:09;6.60;;;2.53;;
28070;SDS011;15383;48.408;9.968;2022-12-07T02:15:48;10.05;;;1.98;;
28070;SDS011;15383;48.408;9.968;2022-12-07T02:18:48;4.22;;;2.10;;
28070;SDS011;15383;48.408;9.968;2022-12-07T02:21:46;3.80;;;2.00;;
28070;SDS011;15383;48.408;9.968;2022-12-07T02:25:03;8.27;;;1.80;;
28070;SDS011;15383;48.408;9.968;2022-12-07T02:27:38;2.53;;;1.60;;
28070;SDS011;15383;48.408;9.968;2022-12-07T02:30:35;4.13;;;1.83;;
28070;SDS011;15383;48.408;9.968;2022-12-07T02:33:26;5.05;;;2.10;;
28070;SDS011;15383;48.408;9.968;2022-12-07T02:36:11;9.38;;;2.55;;
28070;SDS011;15383;48.408;9.968;2022-12-07T02:38:48;5.97;;;1.90;;
28070;SDS011;15383;48.408;9.968;2022-12-07T02:41:34;4.20;;;2.00;;
28070;SDS011;15383;48.408;9.968;2022-12-07T02:44:07;4.20;;;1.73;;
28070;SDS011;15383;48.408;9.968;2022-12-07T02:46:41;2.40;;;1.73;;
28070;SDS011;15383;48.408;9.968;2022-12-07T02:49:09;2.08;;;1.55;;
28070;SDS011;15383;48.408;9.968;2022-12-07T02:51:38;2.85;;;1.80;;
28070;SDS011;15383;48.408;9.968;2022-12-07T02:54:13;4.22;;;1.83;;
28070;SDS011;15383;48.408;9.968;2022-12-07T03:02:00;7.00;;;2.00;;
28070;SDS011;15383;48.408;9.968;2022-12-07T03:04:59;4.88;;;1.70;;
28070;SDS011;15383;48.408;9.968;2022-12-07T03:07:37;4.22;;;1.88;;
28070;SDS011;15383;48.408;9.968;2022-12-07T03:15:46;2.85;;;1.63;;
28070;SDS011;15383;48.408;9.968;2022-12-07T03:18:28;5.20;;;1.80;;
28070;SDS011;15383;48.408;9.968;2022-12-07T03:20:58;2.45;;;1.88;;
28070;SDS011;15383;48.408;9.968;2022-12-07T03:23:28;5.88;;;1.80;;
28070;SDS011;15383;48.408;9.968;2022-12-07T03:25:57;6.20;;;1.80;;
28070;SDS011;15383;48.408;9.968;2022-12-07T03:28:26;3.28;;;1.80;;
28070;SDS011;15383;48.408;9.968;2022-12-07T03:30:57;3.55;;;2.05;;
28070;SDS011;15383;48.408;9.968;2022-12-07T03:33:40;1.90;;;1.73;;
28070;SDS011;15383;48.408;9.968;2022-12-07T03:36:12;5.45;;;1.73;;
28070;SDS011;15383;48.408;9.968;2022-12-07T03:41:29;5.13;;;1.90;;
28070;SDS011;15383;48.408;9.968;2022-12-07T03:43:57;1.13;;;1.03;;
28070;SDS011;15383;48.408;9.968;2022-12-07T03:48:59;3.78;;;1.65;;
28070;SDS011;15383;48.408;9.968;2022-12-07T03:54:30;4.78;;;1.58;;
28070;SDS011;15383;48.408;9.968;2022-12-07T03:56:57;2.63;;;1.58;;
28070;SDS011;15383;48.408;9.968;2022-12-07T03:59:25;2.90;;;1.75;;
28070;SDS011;15383;48.408;9.968;2022-12-07T04:01:55;4.38;;;2.10;;
28070;SDS011;15383;48.408;9.968;2022-12-07T04:04:23;3.00;;;1.52;;
28070;SDS011;15383;48.408;9.968;2022-12-07T04:06:50;2.70;;;1.80;;
28070;SDS011;15383;48.408;9.968;2022-12-07T04:09:16;4.28;;;2.67;;
28070;SDS011;15383;48.408;9.968;2022-12-07T04:11:42;3.97;;;1.70;;
28070;SDS011;15383;48.408;9.968;2022-12-07T04:14:07;6.70;;;2.38;;
28070;SDS011;15383;48.408;9.968;2022-12-07T04:16:49;7.10;;;1.77;;
28070;SDS011;15383;48.408;9.968;2022-12-07T04:19:17;2.65;;;1.95;;
28070;SDS011;15383;48.408;9.968;2022-12-07T04:21:45;6.03;;;1.80;;
28070;SDS011;15383;48.408;9.968;2022-12-07T04:24:11;4.85;;;1.60;;
28070;SDS011;15383;48.408;9.968;2022-12-07T04:26:37;2.03;;;1.65;;
28070;SDS011;15383;48.408;9.968;2022-12-07T04:29:03;6.70;;;2.28;;
28070;SDS011;15383;48.408;9.968;2022-12-07T04:31:29;3.85;;;1.67;;
28070;SDS011;15383;48.408;9.968;2022-12-07T04:33:54;2.42;;;1.63;;
28070;SDS011;15383;48.408;9.968;2022-12-07T04:36:20;2.95;;;1.45;;
28070;SDS011;15383;48.408;9.968;2022-12-07T04:38:46;2.13;;;1.40;;
28070;SDS011;15383;48.408;9.968;2022-12-07T04:41:11;5.05;;;2.10;;
28070;SDS011;15383;48.408;9.968;2022-12-07T04:43:37;7.45;;;1.67;;
28070;SDS011;15383;48.408;9.968;2022-12-07T04:46:03;3.25;;;1.67;;
28070;SDS011;15383;48.408;9.968;2022-12-07T04:48:28;5.28;;;2.20;;
28070;SDS011;15383;48.408;9.968;2022-12-07T04:50:54;2.20;;;1.30;;
28070;SDS011;15383;48.408;9.968;2022-12-07T04:53:20;4.60;;;1.58;;
28070;SDS011;15383;48.408;9.968;2022-12-07T04:55:46;2.88;;;1.98;;
28070;SDS011;15383;48.408;9.968;2022-12-07T04:58:12;4.43;;;1.67;;
28070;SDS011;15383;48.408;9.968;2022-12-07T05:00:38;2.13;;;1.60;;
28070;SDS011;15383;48.408;9.968;2022-12-07T05:03:04;7.97;;;2.08;;
28070;SDS011;15383;48.408;9.968;2022-12-07T05:05:30;8.98;;;2.00;;
28070;SDS011;15383;48.408;9.968;2022-12-07T05:07:56;9.15;;;2.47;;
28070;SDS011;15383;48.408;9.968;2022-12-07T05:10:21;5.43;;;1.80;;
28070;SDS011;15383;48.408;9.968;2022-12-07T05:12:47;5.28;;;2.05;;
28070;SDS011;15383;48.408;9.968;2022-12-07T05:15:13;4.68;;;2.08;;
28070;SDS011;15383;48.408;9.968;2022-12-07T05:17:39;3.85;;;2.00;;
28070;SDS011;15383;48.408;9.968;2022-12-07T05:20:05;7.75;;;1.98;;
28070;SDS011;15383;48.408;9.968;2022-12-07T05:22:31;7.80;;;1.88;;
28070;SDS011;15383;48.408;9.968;2022-12-07T05:24:57;8.80;;;2.22;;
28070;SDS011;15383;48.408;9.968;2022-12-07T05:27:23;6.32;;;1.80;;
28070;SDS011;15383;48.408;9.968;2022-12-07T05:29:49;3.63;;;1.88;;
28070;SDS011;15383;48.408;9.968;2022-12-07T05:32:15;3.53;;;1.75;;
28070;SDS011;15383;48.408;9.968;2022-12-07T05:34:41;8.70;;;2.20;;
28070;SDS011;15383;48.408;9.968;2022-12-07T05:37:07;7.80;;;1.90;;
28070;SDS011;15383;48.408;9.968;2022-12-07T05:39:33;2.97;;;1.80;;
28070;SDS011;15383;48.408;9.968;2022-12-07T05:41:58;3.20;;;1.75;;
28070;SDS011;15383;48.408;9.968;2022-12-07T05:44:43;24.70;;;2.63;;
28070;SDS011;15383;48.408;9.968;2022-12-07T05:47:10;11.25;;;1.95;;
28070;SDS011;15383;48.408;9.968;2022-12-07T05:49:36;6.38;;;1.83;;
28070;SDS011;15383;48.408;9.968;2022-12-07T05:52:02;3.30;;;1.50;;
28070;SDS011;15383;48.408;9.968;2022-12-07T05:54:28;12.88;;;2.00;;
28070;SDS011;15383;48.408;9.968;2022-12-07T05:56:54;4.28;;;1.70;;
28070;SDS011;15383;48.408;9.968;2022-12-07T05:59:20;9.77;;;2.20;;
28070;SDS011;15383;48.408;9.968;2022-12-07T06:01:52;3.90;;;1.75;;
28070;SDS011;15383;48.408;9.968;2022-12-07T06:04:29;3.00;;;1.95;;
28070;SDS011;15383;48.408;9.968;2022-12-07T06:06:57;5.90;;;1.67;;
28070;SDS011;15383;48.408;9.968;2022-12-07T06:09:24;4.68;;;1.67;;
28070;SDS011;15383;48.408;9.968;2022-12-07T06:11:51;9.35;;;2.05;;
28070;SDS011;15383;48.408;9.968;2022-12-07T06:14:35;4.40;;;1.92;;
28070;SDS011;15383;48.408;9.968;2022-12-07T06:17:01;7.18;;;1.90;;
28070;SDS011;15383;48.408;9.968;2022-12-07T06:19:27;10.48;;;2.00;;
28070;SDS011;15383;48.408;9.968;2022-12-07T06:21:52;3.67;;;1.45;;
28070;SDS011;15383;48.408;9.968;2022-12-07T06:24:18;2.95;;;1.70;;
28070;SDS011;15383;48.408;9.968;2022-12-07T06:26:44;8.98;;;2.00;;
28070;SDS011;15383;48.408;9.968;2022-12-07T06:29:10;4.38;;;1.45;;
28070;SDS011;15383;48.408;9.968;2022-12-07T06:31:36;7.20;;;2.55;;
28070;SDS011;15383;48.408;9.968;2022-12-07T06:34:06;4.97;;;2.20;;
28070;SDS011;15383;48.408;9.968;2022-12-07T06:36:35;7.60;;;1.80;;
28070;SDS011;15383;48.408;9.968;2022-12-07T06:39:01;4.65;;;2.08;;
28070;SDS011;15383;48.408;9.968;2022-12-07T06:41:27;5.15;;;1.52;;
28070;SDS011;15383;48.408;9.968;2022-12-07T06:43:53;3.88;;;1.55;;
28070;SDS011;15383;48.408;9.968;2022-12-07T06:46:18;4.00;;;1.92;;
28070;SDS011;15383;48.408;9.968;2022-12-07T06:48:44;4.85;;;1.63;;
28070;SDS011;15383;48.408;9.968;2022-12-07T06:51:09;5.55;;;2.42;;
28070;SDS011;15383;48.408;9.968;2022-12-07T06:53:35;3.60;;;1.70;;
28070;SDS011;15383;48.408;9.968;2022-12-07T06:56:02;3.35;;;1.77;;
28070;SDS011;15383;48.408;9.968;2022-12-07T06:58:28;3.33;;;1.63;;
28070;SDS011;15383;48.408;9.968;2022-12-07T07:00:54;13.05;;;2.78;;
28070;SDS011;15383;48.408;9.968;2022-12-07T07:03:19;6.68;;;1.52;;
28070;SDS011;15383;48.408;9.968;2022-12-07T07:05:45;7.05;;;1.65;;
28070;SDS011;15383;48.408;9.968;2022-12-07T07:08:11;3.20;;;1.80;;
28070;SDS011;15383;48.408;9.968;2022-12-07T07:10:36;3.40;;;1.60;;
28070;SDS011;15383;48.408;9.968;2022-12-07T07:13:02;3.67;;;2.25;;
28070;SDS011;15383;48.408;9.968;2022-12-07T07:15:28;4.93;;;1.90;;
28070;SDS011;15383;48.408;9.968;2022-12-07T07:17:54;5.95;;;1.77;;
28070;SDS011;15383;48.408;9.968;2022-12-07T07:20:19;3.22;;;1.70;;
28070;SDS011;15383;48.408;9.968;2022-12-07T07:22:45;9.02;;;2.35;;
28070;SDS011;15383;48.408;9.968;2022-12-07T07:25:11;3.67;;;1.60;;
28070;SDS011;15383;48.408;9.968;2022-12-07T07:27:37;9.85;;;4.15;;
28070;SDS011;15383;48.408;9.968;2022-12-07T07:30:03;14.50;;;5.35;;
28070;SDS011;15383;48.408;9.968;2022-12-07T07:32:42;10.63;;;5.63;;
28070;SDS011;15383;48.408;9.968;2022-12-07T07:37:55;18.83;;;5.95;;
28070;SDS011;15383;48.408;9.968;2022-12-07T07:40:21;16.83;;;6.03;;
28070;SDS011;15383;48.408;9.968;2022-12-07T07:42:48;27.60;;;7.15;;
28070;SDS011;15383;48.408;9.968;2022-12-07T07:45:15;24.58;;;6.20;;
28070;SDS011;15383;48.408;9.968;2022-12-07T07:50:25;23.52;;;5.35;;
28070;SDS011;15383;48.408;9.968;2022-12-07T07:52:51;18.95;;;5.43;;
28070;SDS011;15383;48.408;9.968;2022-12-07T07:55:17;26.98;;;5.10;;
28070;SDS011;15383;48.408;9.968;2022-12-07T07:57:42;16.63;;;5.20;;
28070;SDS011;15383;48.408;9.968;2022-12-07T08:00:09;30.25;;;4.90;;
28070;SDS011;15383;48.408;9.968;2022-12-07T08:02:37;15.52;;;5.00;;
28070;SDS011;15383;48.408;9.968;2022-12-07T08:05:03;13.73;;;4.10;;
28070;SDS011;15383;48.408;9.968;2022-12-07T08:07:29;20.30;;;5.10;;
28070;SDS011;15383;48.408;9.968;2022-12-07T08:09:54;15.48;;;4.50;;
28070;SDS011;15383;48.408;9.968;2022-12-07T08:12:20;16.48;;;4.35;;
28070;SDS011;15383;48.408;9.968;2022-12-07T08:14:46;15.57;;;3.85;;
28070;SDS011;15383;48.408;9.968;2022-12-07T08:17:11;21.65;;;4.20;;
28070;SDS011;15383;48.408;9.968;2022-12-07T08:19:37;12.60;;;3.67;;
28070;SDS011;15383;48.408;9.968;2022-12-07T08:22:03;11.68;;;3.67;;
28070;SDS011;15383;48.408;9.968;2022-12-07T08:24:28;12.48;;;3.78;;
28070;SDS011;15383;48.408;9.968;2022-12-07T08:26:54;7.57;;;3.50;;
28070;SDS011;15383;48.408;9.968;2022-12-07T08:29:20;13.40;;;3.67;;
28070;SDS011;15383;48.408;9.968;2022-12-07T08:31:45;14.65;;;3.50;;
28070;SDS011;15383;48.408;9.968;2022-12-07T08:34:11;14.63;;;3.10;;
28070;SDS011;15383;48.408;9.968;2022-12-07T08:36:37;13.48;;;3.58;;
28070;SDS011;15383;48.408;9.968;2022-12-07T08:39:03;8.27;;;2.88;;
28070;SDS011;15383;48.408;9.968;2022-12-07T08:41:29;14.90;;;3.72;;
28070;SDS011;15383;48.408;9.968;2022-12-07T08:43:58;11.25;;;3.47;;
28070;SDS011;15383;48.408;9.968;2022-12-07T08:48:57;12.65;;;2.95;;
28070;SDS011;15383;48.408;9.968;2022-12-07T08:51:28;13.35;;;3.20;;
28070;SDS011;15383;48.408;9.968;2022-12-07T08:53:54;15.25;;;3.70;;
28070;SDS011;15383;48.408;9.968;2022-12-07T08:56:21;15.63;;;3.58;;
28070;SDS011;15383;48.408;9.968;2022-12-07T08:58:47;10.90;;;3.03;;
28070;SDS011;15383;48.408;9.968;2022-12-07T09:01:13;9.63;;;3.50;;
28070;SDS011;15383;48.408;9.968;2022-12-07T09:03:39;7.05;;;3.00;;
28070;SDS011;15383;48.408;9.968;2022-12-07T09:06:05;6.78;;;3.05;;
28070;SDS011;15383;48.408;9.968;2022-12-07T09:08:33;9.32;;;3.42;;
28070;SDS011;15383;48.408;9.968;2022-12-07T09:11:03;7.05;;;3.40;;
28070;SDS011;15383;48.408;9.968;2022-12-07T09:13:29;11.50;;;3.40;;
28070;SDS011;15383;48.408;9.968;2022-12-07T09:15:54;6.47;;;2.75;;
28070;SDS011;15383;48.408;9.968;2022-12-07T09:18:20;8.77;;;2.85;;
28070;SDS011;15383;48.408;9.968;2022-12-07T09:20:46;11.38;;;2.97;;
28070;SDS011;15383;48.408;9.968;2022-12-07T09:23:12;8.05;;;3.15;;
28070;SDS011;15383;48.408;9.968;2022-12-07T09:25:37;6.30;;;2.80;;
28070;SDS011;15383;48.408;9.968;2022-12-07T09:28:03;9.52;;;2.80;;
28070;SDS011;15383;48.408;9.968;2022-12-07T09:30:28;13.77;;;3.40;;
28070;SDS011;15383;48.408;9.968;2022-12-07T09:32:55;6.28;;;2.70;;
28070;SDS011;15383;48.408;9.968;2022-12-07T09:35:21;12.30;;;3.17;;
28070;SDS011;15383;48.408;9.968;2022-12-07T09:37:48;7.45;;;2.67;;
28070;SDS011;15383;48.408;9.968;2022-12-07T09:40:14;5.88;;;2.40;;
28070;SDS011;15383;48.408;9.968;2022-12-07T09:42:42;7.50;;;3.13;;
28070;SDS011;15383;48.408;9.968;2022-12-07T09:45:14;4.20;;;2.63;;
28070;SDS011;15383;48.408;9.968;2022-12-07T09:47:51;4.13;;;2.20;;
28070;SDS011;15383;48.408;9.968;2022-12-07T09:50:21;8.10;;;3.20;;
28070;SDS011;15383;48.408;9.968;2022-12-07T09:52:49;6.25;;;3.00;;
28070;SDS011;15383;48.408;9.968;2022-12-07T09:55:19;13.35;;;2.92;;
28070;SDS011;15383;48.408;9.968;2022-12-07T09:57:49;6.05;;;2.50;;
28070;SDS011;15383;48.408;9.968;2022-12-07T10:00:17;3.90;;;2.33;;
28070;SDS011;15383;48.408;9.968;2022-12-07T10:02:47;7.22;;;2.38;;
28070;SDS011;15383;48.408;9.968;2022-12-07T10:05:23;4.03;;;2.28;;
28070;SDS011;15383;48.408;9.968;2022-12-07T10:07:50;6.88;;;2.60;;
28070;SDS011;15383;48.408;9.968;2022-12-07T10:10:18;7.07;;;3.00;;
28070;SDS011;15383;48.408;9.968;2022-12-07T10:13:02;2.85;;;2.22;;
28070;SDS011;15383;48.408;9.968;2022-12-07T10:18:21;6.57;;;2.25;;
28070;SDS011;15383;48.408;9.968;2022-12-07T10:23:29;4.97;;;2.58;;
28070;SDS011;15383;48.408;9.968;2022-12-07T10:25:55;5.82;;;2.67;;
28070;SDS011;15383;48.408;9.968;2022-12-07T10:28:21;5.60;;;2.33;;
28070;SDS011;15383;48.408;9.968;2022-12-07T10:30:48;3.92;;;2.45;;
28070;SDS011;15383;48.408;9.968;2022-12-07T10:35:53;6.47;;;2.17;;
28070;SDS011;15383;48.408;9.968;2022-12-07T10:38:19;5.90;;;2.30;;
28070;SDS011;15383;48.408;9.968;2022-12-07T10:40:45;4.57;;;2.42;;
28070;SDS011;15383;48.408;9.968;2022-12-07T10:48:55;4.35;;;2.15;;
28070;SDS011;15383;48.408;9.968;2022-12-07T10:51:54;2.58;;;1.80;;
28070;SDS011;15383;48.408;9.968;2022-12-07T11:00:23;3.60;;;1.98;;
28070;SDS011;15383;48.408;9.968;2022-12-07T11:13:56;3.28;;;2.10;;
28070;SDS011;15383;48.408;9.968;2022-12-07T11:16:52;3.92;;;2.30;;
28070;SDS011;15383;48.408;9.968;2022-12-07T11:21:58;4.57;;;1.90;;
28070;SDS011;15383;48.408;9.968;2022-12-07T11:27:28;3.70;;;2.05;;
28070;SDS011;15383;48.408;9.968;2022-12-07T11:32:45;4.20;;;2.00;;
28070;SDS011;15383;48.408;9.968;2022-12-07T11:38:07;4.80;;;2.03;;
28070;SDS011;15383;48.408;9.968;2022-12-07T11:40:40;13.05;;;2.00;;
28070;SDS011;15383;48.408;9.968;2022-12-07T11:46:08;7.70;;;2.03;;
28070;SDS011;15383;48.408;9.968;2022-12-07T11:48:38;3.63;;;2.33;;
28070;SDS011;15383;48.408;9.968;2022-12-07T11:51:18;4.55;;;1.75;;
28070;SDS011;15383;48.408;9.968;2022-12-07T11:53:51;4.60;;;2.38;;
28070;SDS011;15383;48.408;9.968;2022-12-07T11:56:22;6.57;;;2.15;;
28070;SDS011;15383;48.408;9.968;2022-12-07T11:59:00;7.43;;;2.33;;
28070;SDS011;15383;48.408;9.968;2022-12-07T12:06:35;2.13;;;1.65;;
28070;SDS011;15383;48.408;9.968;2022-12-07T12:14:22;2.63;;;1.58;;
28070;SDS011;15383;48.408;9.968;2022-12-07T12:22:45;5.10;;;2.30;;
28070;SDS011;15383;48.408;9.968;2022-12-07T12:25:21;4.63;;;1.73;;
28070;SDS011;15383;48.408;9.968;2022-12-07T12:27:51;2.75;;;1.83;;
28070;SDS011;15383;48.408;9.968;2022-12-07T12:33:11;1.50;;;1.40;;
28070;SDS011;15383;48.408;9.968;2022-12-07T12:35:42;4.97;;;1.85;;
28070;SDS011;15383;48.408;9.968;2022-12-07T12:40:55;4.20;;;1.80;;
28070;SDS011;15383;48.408;9.968;2022-12-07T12:51:52;4.13;;;2.15;;
28070;SDS011;15383;48.408;9.968;2022-12-07T12:54:19;10.80;;;1.90;;
28070;SDS011;15383;48.408;9.968;2022-12-07T12:57:00;3.35;;;1.92;;
28070;SDS011;15383;48.408;9.968;2022-12-07T12:59:34;4.05;;;1.90;;
28070;SDS011;15383;48.408;9.968;2022-12-07T13:04:50;12.25;;;1.70;;
28070;SDS011;15383;48.408;9.968;2022-12-07T13:18:25;7.75;;;1.90;;
28070;SDS011;15383;48.408;9.968;2022-12-07T13:26:20;5.28;;;1.48;;
28070;SDS011;15383;48.408;9.968;2022-12-07T13:29:11;2.90;;;1.60;;
28070;SDS011;15383;48.408;9.968;2022-12-07T13:31:46;2.42;;;1.50;;
28070;SDS011;15383;48.408;9.968;2022-12-07T13:37:08;3.45;;;1.83;;
28070;SDS011;15383;48.408;9.968;2022-12-07T13:39:49;2.75;;;1.58;;
28070;SDS011;15383;48.408;9.968;2022-12-07T13:42:30;3.10;;;1.67;;
28070;SDS011;15383;48.408;9.968;2022-12-07T13:44:59;2.22;;;1.70;;
28070;SDS011;15383;48.408;9.968;2022-12-07T13:50:22;3.90;;;1.85;;
28070;SDS011;15383;48.408;9.968;2022-12-07T13:52:56;6.63;;;2.00;;
28070;SDS011;15383;48.408;9.968;2022-12-07T13:55:26;2.63;;;1.48;;
28070;SDS011;15383;48.408;9.968;2022-12-07T13:57:55;2.87;;;1.80;;
28070;SDS011;15383;48.408;9.968;2022-12-07T14:00:22;4.15;;;1.90;;
28070;SDS011;15383;48.408;9.968;2022-12-07T14:05:36;2.25;;;1.52;;
28070;SDS011;15383;48.408;9.968;2022-12-07T14:12:57;3.70;;;1.58;;
28070;SDS011;15383;48.408;9.968;2022-12-07T14:15:24;3.33;;;1.80;;
28070;SDS011;15383;48.408;9.968;2022-12-07T14:17:57;3.05;;;1.63;;
28070;SDS011;15383;48.408;9.968;2022-12-07T14:20:38;2.10;;;1.75;;
28070;SDS011;15383;48.408;9.968;2022-12-07T14:23:19;3.90;;;1.75;;
28070;SDS011;15383;48.408;9.968;2022-12-07T14:25:50;7.22;;;1.73;;
28070;SDS011;15383;48.408;9.968;2022-12-07T14:31:14;8.05;;;1.85;;
28070;SDS011;15383;48.408;9.968;2022-12-07T14:33:41;4.47;;;2.03;;
28070;SDS011;15383;48.408;9.968;2022-12-07T14:36:11;1.75;;;1.33;;
28070;SDS011;15383;48.408;9.968;2022-12-07T14:38:37;2.90;;;1.48;;
28070;SDS011;15383;48.408;9.968;2022-12-07T14:41:04;2.40;;;1.40;;
28070;SDS011;15383;48.408;9.968;2022-12-07T14:43:54;2.70;;;1.63;;
28070;SDS011;15383;48.408;9.968;2022-12-07T14:46:20;2.58;;;1.48;;
28070;SDS011;15383;48.408;9.968;2022-12-07T14:48:45;2.58;;;1.58;;
28070;SDS011;15383;48.408;9.968;2022-12-07T14:51:11;3.97;;;1.88;;
28070;SDS011;15383;48.408;9.968;2022-12-07T14:53:39;4.05;;;1.65;;
28070;SDS011;15383;48.408;9.968;2022-12-07T14:56:07;3.15;;;1.45;;
28070;SDS011;15383;48.408;9.968;2022-12-07T14:58:33;7.65;;;1.60;;
28070;SDS011;15383;48.408;9.968;2022-12-07T15:00:59;1.83;;;1.40;;
28070;SDS011;15383;48.408;9.968;2022-12-07T15:03:28;2.75;;;2.05;;
28070;SDS011;15383;48.408;9.968;2022-12-07T15:05:54;2.90;;;1.42;;
28070;SDS011;15383;48.408;9.968;2022-12-07T15:08:20;5.13;;;1.38;;
28070;SDS011;15383;48.408;9.968;2022-12-07T15:10:45;2.70;;;1.60;;
28070;SDS011;15383;48.408;9.968;2022-12-07T15:13:11;3.60;;;1.52;;
28070;SDS011;15383;48.408;9.968;2022-12-07T15:15:55;3.08;;;1.50;;
28070;SDS011;15383;48.408;9.968;2022-12-07T15:18:21;1.67;;;1.58;;
28070;SDS011;15383;48.408;9.968;2022-12-07T15:20:47;1.92;;;1.25;;
28070;SDS011;15383;48.408;9.968;2022-12-07T15:23:13;3.03;;;1.80;;
28070;SDS011;15383;48.408;9.968;2022-12-07T15:25:40;2.33;;;1.45;;
28070;SDS011;15383;48.408;9.968;2022-12-07T15:28:06;2.85;;;1.58;;
28070;SDS011;15383;48.408;9.968;2022-12-07T15:30:32;2.08;;;1.40;;
28070;SDS011;15383;48.408;9.968;2022-12-07T15:32:57;1.48;;;1.20;;
28070;SDS011;15383;48.408;9.968;2022-12-07T15:35:23;2.20;;;1.60;;
28070;SDS011;15383;48.408;9.968;2022-12-07T15:37:48;4.53;;;1.30;;
28070;SDS011;15383;48.408;9.968;2022-12-07T15:40:14;2.67;;;1.38;;
28070;SDS011;15383;48.408;9.968;2022-12-07T15:42:40;2.50;;;1.67;;
28070;SDS011;15383;48.408;9.968;2022-12-07T15:45:06;3.08;;;1.40;;
28070;SDS011;15383;48.408;9.968;2022-12-07T15:50:08;3.45;;;1.60;;
28070;SDS011;15383;48.408;9.968;2022-12-07T15:52:38;2.17;;;1.33;;
28070;SDS011;15383;48.408;9.968;2022-12-07T15:55:04;1.48;;;1.10;;
28070;SDS011;15383;48.408;9.968;2022-12-07T15:57:31;3.63;;;1.70;;
28070;SDS011;15383;48.408;9.968;2022-12-07T15:59:57;2.60;;;1.55;;
28070;SDS011;15383;48.408;9.968;2022-12-07T16:02:23;3.60;;;1.20;;
28070;SDS011;15383;48.408;9.968;2022-12-07T16:04:50;2.55;;;1.73;;
28070;SDS011;15383;48.408;9.968;2022-12-07T16:07:16;3.10;;;1.45;;
28070;SDS011;15383;48.408;9.968;2022-12-07T16:09:43;1.95;;;1.33;;
28070;SDS011;15383;48.408;9.968;2022-12-07T16:12:10;1.98;;;1.40;;
28070;SDS011;15383;48.408;9.968;2022-12-07T16:14:36;5.15;;;1.48;;
28070;SDS011;15383;48.408;9.968;2022-12-07T16:17:03;2.45;;;1.27;;
28070;SDS011;15383;48.408;9.968;2022-12-07T16:19:29;2.60;;;1.30;;
28070;SDS011;15383;48.408;9.968;2022-12-07T16:21:56;2.35;;;1.20;;
28070;SDS011;15383;48.408;9.968;2022-12-07T16:24:22;2.88;;;1.55;;
28070;SDS011;15383;48.408;9.968;2022-12-07T16:26:47;2.40;;;1.40;;
28070;SDS011;15383;48.408;9.968;2022-12-07T16:29:14;2.03;;;1.48;;
28070;SDS011;15383;48.408;9.968;2022-12-07T16:31:39;1.40;;;1.25;;
28070;SDS011;15383;48.408;9.968;2022-12-07T16:34:05;1.88;;;1.20;;
28070;SDS011;15383;48.408;9.968;2022-12-07T16:36:31;3.10;;;1.38;;
28070;SDS011;15383;48.408;9.968;2022-12-07T16:39:00;1.35;;;1.10;;
28070;SDS011;15383;48.408;9.968;2022-12-07T16:41:26;1.30;;;1.20;;
28070;SDS011;15383;48.408;9.968;2022-12-07T16:43:52;3.70;;;1.38;;
28070;SDS011;15383;48.408;9.968;2022-12-07T16:46:18;3.03;;;1.55;;
28070;SDS011;15383;48.408;9.968;2022-12-07T16:48:43;2.88;;;1.83;;
28070;SDS011;15383;48.408;9.968;2022-12-07T16:51:10;1.20;;;1.10;;
28070;SDS011;15383;48.408;9.968;2022-12-07T16:53:38;3.45;;;1.60;;
28070;SDS011;15383;48.408;9.968;2022-12-07T16:56:12;2.55;;;1.50;;
28070;SDS011;15383;48.408;9.968;2022-12-07T16:58:40;4.05;;;2.10;;
28070;SDS011;15383;48.408;9.968;2022-12-07T17:01:11;4.50;;;2.30;;
28070;SDS011;15383;48.408;9.968;2022-12-07T17:03:47;7.15;;;3.83;;
28070;SDS011;15383;48.408;9.968;2022-12-07T17:06:17;8.50;;;4.40;;
28070;SDS011;15383;48.408;9.968;2022-12-07T17:08:50;9.55;;;5.35;;
28070;SDS011;15383;48.408;9.968;2022-12-07T17:11:18;15.02;;;5.68;;
28070;SDS011;15383;48.408;9.968;2022-12-07T17:13:45;16.58;;;7.82;;
28070;SDS011;15383;48.408;9.968;2022-12-07T17:16:30;16.95;;;8.65;;
28070;SDS011;15383;48.408;9.968;2022-12-07T17:18:55;21.70;;;9.57;;